Time;durP1;ratioP1;P1;durP2;ratioP2;P2;SDS_P1;SDS_P2;PMS_P1;PMS_P2;Temp;Humidity;BMP_temperature;BMP_pressure;BME280_temperature;BME280_humidity;BME280_pressure;Samples;Min_cycle;Max_cycle;Signal;HPM_P1;HPM_P2
2021/11/12 00:13:26;;;;;;;77.50;44.50;;;;;;;5.81;67.17;99774.95;212619;1328;140542;-56
2021/11/12 00:18:31;;;;;;;79.00;46.90;;;;;;;5.80;67.07;99777.97;211987;1328;138989;-55
2021/11/12 00:23:38;;;;;;;80.00;44.90;;;;;;;5.81;67.38;99786.05;212317;1325;138592;-58
2021/11/12 00:28:51;;;;;;;79.20;44.00;;;;;;;5.86;67.11;99785.19;211786;1325;139862;-61
2021/11/12 00:39:05;;;;;;;72.60;43.70;;;;;;;6.01;67.63;99786.50;212279;1324;139419;-57
2021/11/12 00:49:18;;;;;;;54.70;31.90;;;;;;;6.11;67.48;99782.52;212411;1325;138958;-60
2021/11/12 00:54:21;;;;;;;75.80;42.90;;;;;;;6.11;67.23;99778.45;212507;1324;138657;-60
2021/11/12 00:59:25;;;;;;;74.90;44.40;;;;;;;6.11;67.30;99779.52;212372;1326;138822;-59
2021/11/12 01:04:28;;;;;;;79.30;45.90;;;;;;;6.09;67.55;99773.96;212085;1327;140739;-58
2021/11/12 01:09:30;;;;;;;73.30;44.10;;;;;;;6.13;67.71;99776.98;211792;1325;139040;-61
2021/11/12 01:14:34;;;;;;;74.80;45.20;;;;;;;6.20;67.48;99779.06;211996;1325;139904;-60
2021/11/12 01:19:37;;;;;;;83.00;46.60;;;;;;;6.22;67.60;99778.47;212295;1325;139985;-58
2021/11/12 01:24:41;;;;;;;78.90;46.30;;;;;;;6.23;67.62;99774.91;212084;1325;139007;-59
2021/11/12 01:29:44;;;;;;;84.40;49.60;;;;;;;6.20;67.28;99770.59;211738;1325;138627;-57
2021/11/12 01:34:49;;;;;;;79.90;46.40;;;;;;;6.15;67.47;99772.86;211685;1323;138382;-60
2021/11/12 01:39:58;;;;;;;78.40;43.80;;;;;;;6.12;67.27;99775.24;212228;1328;138961;-59
2021/11/12 01:45:09;;;;;;;79.90;46.40;;;;;;;6.05;67.47;99776.70;212020;1325;139727;-56
2021/11/12 01:50:17;;;;;;;79.80;45.60;;;;;;;5.97;67.77;99770.97;212052;1325;139403;-57
2021/11/12 02:00:42;;;;;;;75.80;43.00;;;;;;;5.90;67.83;99769.73;211781;1328;140471;-58
2021/11/12 02:05:45;;;;;;;85.00;48.30;;;;;;;5.91;68.05;99773.95;212033;1328;138926;-58
2021/11/12 02:10:48;;;;;;;78.90;45.40;;;;;;;5.92;68.11;99778.33;212067;1324;138561;-59
2021/11/12 02:15:52;;;;;;;85.10;47.80;;;;;;;5.91;68.31;99776.23;212357;1328;138782;-59
2021/11/12 02:21:34;;;;;;;79.70;43.80;;;;;;;5.92;68.13;99771.29;211970;1331;138516;-58
2021/11/12 02:26:28;;;;;;;87.70;47.40;;;;;;;5.89;68.23;99760.08;212222;1331;138976;-56
2021/11/12 02:31:31;;;;;;;81.70;45.30;;;;;;;5.91;68.17;99760.57;212472;1324;139739;-57
2021/11/12 02:36:36;;;;;;;92.60;49.20;;;;;;;5.94;68.26;99761.73;212274;1329;139398;-55
2021/11/12 02:41:41;;;;;;;83.20;47.10;;;;;;;6.00;68.29;99757.85;211853;1329;139147;-56
2021/11/12 02:46:44;;;;;;;89.10;47.70;;;;;;;5.98;68.32;99763.02;211966;1325;139071;-57
2021/11/12 02:51:47;;;;;;;87.60;48.10;;;;;;;5.98;68.10;99765.30;211635;1328;139385;-57
2021/11/12 02:56:54;;;;;;;84.20;45.30;;;;;;;5.94;68.37;99762.61;211844;1331;139198;-59
2021/11/12 03:02:05;;;;;;;90.00;48.60;;;;;;;5.84;68.18;99759.89;211873;1324;139763;-56
2021/11/12 03:07:09;;;;;;;88.60;46.20;;;;;;;5.77;68.58;99758.90;211756;1331;139525;-58
2021/11/12 03:12:12;;;;;;;85.10;47.70;;;;;;;5.76;68.63;99759.96;212451;1325;215053;-57
2021/11/12 03:17:15;;;;;;;88.80;47.80;;;;;;;5.79;68.69;99754.41;212542;1325;139815;-58
2021/11/12 03:22:20;;;;;;;84.00;45.20;;;;;;;5.81;68.62;99754.17;212621;1325;139384;-58
2021/11/12 03:27:30;;;;;;;85.00;45.40;;;;;;;5.81;68.70;99756.81;212668;1325;139006;-58
2021/11/12 05:35:00;;;;;;;95.10;47.70;;;;;;;6.16;69.16;99797.13;212036;1328;138798;-60
2021/11/12 05:45:44;;;;;;;109.70;50.70;;;;;;;6.13;68.88;99807.45;211955;1324;139070;-56
2021/11/12 05:55:58;;;;;;;104.90;52.20;;;;;;;6.17;69.05;99807.51;212152;1324;139096;-59
2021/11/12 06:01:02;;;;;;;130.20;65.60;;;;;;;6.27;69.43;99808.08;212046;1327;139380;-60
2021/11/12 06:06:05;;;;;;;98.80;51.20;;;;;;;6.41;69.27;99808.86;212102;1328;140868;-59
2021/11/12 06:11:09;;;;;;;97.90;49.90;;;;;;;6.44;69.00;99810.02;212339;1324;142300;-58
2021/11/12 06:16:12;;;;;;;100.10;50.80;;;;;;;6.44;69.18;99809.64;211981;1325;139033;-59
2021/11/12 06:21:15;;;;;;;98.70;49.70;;;;;;;6.47;68.94;99811.29;212393;1329;139173;-60
2021/11/12 06:26:19;;;;;;;94.80;48.50;;;;;;;6.54;68.94;99816.35;211819;1331;139387;-58
2021/11/12 06:31:22;;;;;;;96.40;50.50;;;;;;;6.62;69.17;99818.21;211880;1325;139342;-58
2021/11/12 06:36:26;;;;;;;99.00;50.60;;;;;;;6.68;69.23;99822.77;212104;1326;139419;-58
2021/11/12 06:52:16;;;;;;;98.50;48.70;;;;;;;6.72;68.98;99824.92;212121;1324;139643;-61
2021/11/12 06:57:21;;;;;;;106.20;55.00;;;;;;;6.75;68.89;99826.95;212565;1325;139243;-59
2021/11/12 07:02:26;;;;;;;76.90;37.40;;;;;;;6.86;69.17;99822.52;211993;1325;139000;-60
2021/11/12 07:07:30;;;;;;;99.00;50.60;;;;;;;6.89;68.68;99826.63;211775;1329;140031;-59
2021/11/12 07:12:33;;;;;;;102.60;51.50;;;;;;;6.98;68.72;99830.40;212121;1325;139412;-58
2021/11/12 07:17:38;;;;;;;98.70;51.80;;;;;;;7.07;68.94;99821.42;212708;1325;139349;-61
2021/11/12 07:22:41;;;;;;;100.50;52.90;;;;;;;7.16;68.77;99822.68;211999;1325;139555;-61
2021/11/12 07:27:44;;;;;;;104.40;52.60;;;;;;;7.21;68.90;99824.98;212105;1323;139758;-59
2021/11/12 07:32:51;;;;;;;100.30;51.40;;;;;;;7.24;68.56;99826.63;212826;1325;139872;-60
2021/11/12 07:37:59;;;;;;;96.40;48.90;;;;;;;7.25;68.54;99820.42;211950;1325;139139;-60
2021/11/12 07:43:20;;;;;;;94.80;50.70;;;;;;;7.24;68.48;99830.70;212246;1329;139496;-59
2021/11/12 07:48:24;;;;;;;108.70;52.00;;;;;;;7.26;68.53;99829.90;211546;1331;139288;-58
2021/11/12 07:53:27;;;;;;;100.70;50.90;;;;;;;7.35;68.34;99823.60;212288;1325;140303;-59
2021/11/12 07:58:30;;;;;;;108.50;53.80;;;;;;;7.45;68.59;99815.84;212954;1325;139913;-57
2021/11/12 08:03:35;;;;;;;103.70;52.00;;;;;;;7.55;68.69;99817.73;212590;1328;139645;-58
2021/11/12 08:08:39;;;;;;;100.20;50.40;;;;;;;7.61;68.46;99814.52;212156;1328;141992;-57
2021/11/12 08:13:57;;;;;;;103.30;52.80;;;;;;;7.68;68.45;99813.59;212244;1324;139603;-58
2021/11/12 08:19:16;;;;;;;101.30;51.60;;;;;;;7.70;68.45;99806.25;212249;1325;140617;-58
2021/11/12 08:30:31;;;;;;;96.80;50.70;;;;;;;7.77;68.36;99802.43;211865;1325;139432;-60
2021/11/12 08:35:03;;;;;;;97.80;48.80;;;;;;;7.81;68.38;99802.27;211388;1341;139974;-60
2021/11/12 08:45:16;;;;;;;83.60;46.70;;;;;;;8.03;68.27;99806.90;212414;1325;141058;-59
2021/11/12 08:50:22;;;;;;;72.70;42.40;;;;;;;8.13;68.04;99800.84;211932;1332;139519;-60
2021/11/12 08:55:27;;;;;;;79.30;43.00;;;;;;;8.17;67.86;99796.11;212461;1328;139722;-63
2021/11/12 09:00:31;;;;;;;79.90;43.50;;;;;;;8.21;67.80;99791.89;211868;1324;138559;-60
2021/11/12 09:05:35;;;;;;;78.60;44.70;;;;;;;8.24;67.51;99793.50;211827;1331;140033;-60
2021/11/12 09:10:38;;;;;;;81.00;44.20;;;;;;;8.26;67.56;99787.95;211990;1325;139416;-60
2021/11/12 09:15:47;;;;;;;74.80;41.20;;;;;;;8.23;67.25;99780.48;212167;1328;140037;-58
2021/11/12 09:20:53;;;;;;;79.60;43.80;;;;;;;8.22;67.29;99775.21;211824;1331;138965;-58
2021/11/12 09:25:56;;;;;;;347.30;208.60;;;;;;;8.25;67.37;99771.55;211819;1324;139714;-57
2021/11/12 09:31:01;;;;;;;82.50;43.90;;;;;;;8.35;67.47;99770.81;211396;1335;139080;-57
2021/11/12 09:36:08;;;;;;;68.70;37.40;;;;;;;8.45;67.22;99770.43;212267;1331;140460;-58
2021/11/12 09:41:11;;;;;;;66.50;38.70;;;;;;;8.46;66.92;99759.77;212104;1326;139665;-57
2021/11/12 09:46:15;;;;;;;71.30;39.50;;;;;;;8.46;66.67;99757.30;212204;1331;138998;-58
2021/11/12 09:51:18;;;;;;;61.30;35.70;;;;;;;8.43;66.61;99755.11;212608;1325;139081;-59
2021/11/12 09:56:21;;;;;;;61.50;37.00;;;;;;;8.43;66.65;99753.34;212081;1331;139412;-60
2021/11/12 10:01:28;;;;;;;65.10;38.70;;;;;;;8.44;66.59;99749.25;212203;1329;139590;-57
2021/11/12 10:06:37;;;;;;;59.30;35.50;;;;;;;8.45;66.46;99748.31;212146;1328;139489;-59
2021/11/12 10:11:50;;;;;;;64.30;36.70;;;;;;;8.45;66.35;99750.06;211686;1331;139374;-58
2021/11/12 10:17:00;;;;;;;62.40;36.40;;;;;;;8.47;66.62;99740.62;211503;1335;140308;-59
2021/11/12 10:22:04;;;;;;;58.80;34.40;;;;;;;8.51;66.39;99726.82;212243;1328;139430;-57
2021/11/12 10:27:31;;;;;;;59.70;36.20;;;;;;;8.53;66.19;99727.64;212178;1330;138783;-59
2021/11/12 10:32:37;;;;;;;60.30;36.10;;;;;;;8.52;66.13;99716.89;211722;1330;140839;-58
2021/11/12 10:37:40;;;;;;;60.70;37.40;;;;;;;8.54;66.02;99709.55;212062;1324;139763;-59
2021/11/12 10:42:47;;;;;;;67.30;39.40;;;;;;;8.59;66.09;99707.41;211903;1331;141487;-59
2021/11/12 10:47:55;;;;;;;61.40;37.60;;;;;;;8.67;66.16;99703.17;212255;1331;139099;-59
2021/11/12 10:53:06;;;;;;;64.00;36.60;;;;;;;8.68;65.94;99699.55;212238;1323;138884;-56
2021/11/12 10:58:12;;;;;;;61.20;37.40;;;;;;;8.67;65.74;99688.30;212317;1325;138915;-56
2021/11/12 11:03:20;;;;;;;69.20;39.30;;;;;;;8.65;65.66;99675.82;211850;1325;139474;-57
2021/11/12 11:08:26;;;;;;;62.90;37.10;;;;;;;8.68;66.25;99675.16;212195;1331;139473;-55
2021/11/12 11:13:32;;;;;;;64.80;37.90;;;;;;;9.56;67.57;99674.52;212110;1327;196103;-58
2021/11/12 11:18:40;;;;;;;61.90;37.80;;;;;;;9.64;65.63;99660.63;211799;1331;139523;-56
2021/11/12 11:23:48;;;;;;;66.00;38.80;;;;;;;9.58;65.28;99655.11;212026;1331;139627;-56
2021/11/12 11:28:54;;;;;;;66.10;38.60;;;;;;;9.48;65.13;99656.09;211838;1330;139473;-57
2021/11/12 11:34:03;;;;;;;66.90;38.50;;;;;;;9.42;64.90;99647.89;211520;1332;140165;-58
2021/11/12 11:39:10;;;;;;;62.90;38.50;;;;;;;9.37;65.01;99651.67;212028;1326;139083;-59
2021/11/12 11:44:19;;;;;;;66.20;39.60;;;;;;;9.31;64.79;99650.87;211777;1328;139522;-57
2021/11/12 11:49:24;;;;;;;61.90;38.70;;;;;;;9.26;65.00;99645.48;212063;1325;139881;-57
2021/11/12 11:54:35;;;;;;;62.20;38.30;;;;;;;9.24;65.04;99646.81;212777;1329;139166;-59
2021/11/12 11:59:40;;;;;;;67.20;38.70;;;;;;;9.20;64.88;99641.84;212140;1330;138510;-60
2021/11/12 12:04:57;;;;;;;96.50;59.40;;;;;;;9.19;65.03;99630.72;212192;1324;139501;-58
2021/11/12 12:10:17;;;;;;;64.90;38.70;;;;;;;9.21;64.99;99628.17;212359;1330;140486;-58
2021/11/12 12:15:20;;;;;;;66.80;39.70;;;;;;;9.19;64.88;99621.17;212316;1328;139279;-57
2021/11/12 12:37:10;;;;;;;73.10;42.50;;;;;;;9.11;64.98;99613.23;211589;1332;139396;-58
2021/11/12 13:25:41;;;;;;;97.90;55.00;;;;;;;8.91;64.86;99598.06;212182;1331;139620;-59
2021/11/12 13:30:51;;;;;;;99.80;51.60;;;;;;;8.86;65.00;99596.88;211453;1331;139138;-58
2021/11/12 13:35:56;;;;;;;98.40;55.60;;;;;;;8.90;65.19;99593.34;211777;1328;140111;-60
2021/11/12 13:41:07;;;;;;;93.00;54.40;;;;;;;8.93;65.28;99588.40;211499;1331;140650;-61
2021/11/12 13:46:11;;;;;;;95.50;56.10;;;;;;;8.96;65.12;99582.59;212534;1324;139363;-62
2021/11/12 13:51:17;;;;;;;103.60;57.70;;;;;;;8.98;65.01;99583.20;212050;1331;139001;-59
2021/11/12 13:56:22;;;;;;;101.50;55.30;;;;;;;8.96;65.21;99582.80;212142;1328;138969;-60
2021/11/12 14:01:25;;;;;;;89.60;52.70;;;;;;;8.95;65.25;99576.97;212008;1325;138874;-61
2021/11/12 14:06:36;;;;;;;89.60;52.60;;;;;;;8.89;65.06;99570.00;211634;1334;139001;-62
2021/11/12 14:11:39;;;;;;;87.20;49.70;;;;;;;8.86;65.02;99579.73;211881;1332;139183;-62
2021/11/12 14:16:52;;;;;;;79.80;46.80;;;;;;;8.79;65.06;99577.54;211972;1329;140149;-59
2021/11/12 14:43:16;;;;;;;74.50;45.80;;;;;;;8.65;65.33;99564.77;211495;1327;139565;-61
2021/11/12 14:58:37;;;;;;;75.80;43.70;;;;;;;8.59;65.19;99562.73;211740;1327;139255;-61
2021/11/12 15:03:45;;;;;;;67.00;41.30;;;;;;;8.55;65.13;99564.34;212029;1329;139251;-63
2021/11/12 15:08:52;;;;;;;67.60;41.40;;;;;;;8.53;65.47;99566.88;211829;1328;142060;-60
2021/11/12 15:14:35;;;;;;;67.10;40.00;;;;;;;8.48;65.26;99561.80;211475;1334;139743;-58
2021/11/12 15:19:45;;;;;;;68.30;39.50;;;;;;;8.42;65.29;99559.77;212577;1321;138864;-60
2021/11/12 15:25:01;;;;;;;63.90;39.10;;;;;;;8.37;65.37;99553.80;212145;1316;139060;-58
2021/11/12 15:30:30;;;;;;;63.70;37.40;;;;;;;8.34;65.36;99557.30;211825;1325;139240;-58
2021/11/12 15:35:31;;;;;;;62.00;37.40;;;;;;;8.36;65.46;99548.02;212116;1331;139792;-59
2021/11/12 15:46:21;;;;;;;72.30;43.50;;;;;;;8.47;65.93;99543.45;211502;1331;139726;-59
2021/11/12 15:52:28;;;;;;;73.40;41.70;;;;;;;8.49;65.63;99543.52;212145;1331;140420;-59
2021/11/12 16:33:54;;;;;;;93.30;51.70;;;;;;;8.35;66.00;99558.83;212066;1330;139531;-58
2021/11/12 16:38:58;;;;;;;72.30;42.50;;;;;;;8.42;65.87;99558.55;211511;1325;139474;-59
2021/11/12 16:44:12;;;;;;;72.70;42.20;;;;;;;8.45;65.95;99559.30;212014;1325;138644;-59
2021/11/12 16:54:28;;;;;;;72.00;42.90;;;;;;;8.34;65.62;99559.75;212349;1325;139385;-58
2021/11/12 17:00:00;;;;;;;73.20;42.40;;;;;;;8.23;65.49;99563.26;211669;1331;139160;-57
2021/11/12 17:05:10;;;;;;;78.70;44.30;;;;;;;8.13;65.60;99556.09;212465;1328;139563;-57
2021/11/12 17:10:22;;;;;;;308.20;183.10;;;;;;;8.07;65.78;99558.83;212348;1325;139529;-56
2021/11/12 17:15:31;;;;;;;90.00;46.90;;;;;;;8.16;66.65;99555.95;212333;1328;139805;-58
2021/11/12 17:47:12;;;;;;;86.10;46.90;;;;;;;8.15;66.15;99545.55;212096;1325;138903;-59
2021/11/12 18:08:42;;;;;;;95.60;50.80;;;;;;;8.09;66.34;99532.75;212003;1325;139496;-59
2021/11/12 18:14:09;;;;;;;94.10;49.20;;;;;;;8.04;66.53;99520.41;212029;1325;139837;-59
2021/11/12 21:48:20;;;;;;;112.90;50.30;;;;;;;7.74;67.12;99473.14;211861;1325;140221;-57
2021/11/12 21:53:24;;;;;;;108.50;47.90;;;;;;;7.73;67.32;99465.08;211775;1325;139520;-61
2021/11/12 21:58:28;;;;;;;121.60;51.80;;;;;;;7.75;67.50;99466.42;212784;1325;140526;-59
2021/11/12 22:03:32;;;;;;;123.80;50.20;;;;;;;7.73;67.35;99463.83;211869;1328;139888;-59
2021/11/12 22:08:35;;;;;;;122.10;49.40;;;;;;;7.69;67.11;99461.91;212247;1325;139369;-60
2021/11/12 22:13:39;;;;;;;134.70;51.10;;;;;;;7.63;67.33;99459.30;212008;1325;139634;-59
2021/11/12 22:18:43;;;;;;;138.60;51.20;;;;;;;7.58;67.32;99453.00;211685;1332;139684;-61
2021/11/12 22:23:47;;;;;;;134.10;50.30;;;;;;;7.54;67.58;99459.55;211981;1325;139371;-60
2021/11/12 22:28:53;;;;;;;126.20;50.30;;;;;;;7.52;67.50;99458.73;211981;1324;140148;-60
2021/11/12 22:33:56;;;;;;;121.50;49.10;;;;;;;7.50;67.53;99447.52;211896;1326;140354;-58
2021/11/12 22:39:00;;;;;;;127.00;48.80;;;;;;;7.51;67.60;99438.48;211551;1331;139078;-59
2021/11/12 22:44:07;;;;;;;125.70;49.80;;;;;;;7.53;67.91;99436.25;212190;1324;139168;-61
2021/11/12 22:49:10;;;;;;;121.30;49.40;;;;;;;7.55;67.85;99435.49;212410;1325;139313;-60
2021/11/12 22:54:13;;;;;;;126.00;50.20;;;;;;;7.53;67.74;99432.02;212125;1329;140077;-59
2021/11/12 22:59:18;;;;;;;125.70;48.40;;;;;;;7.47;67.53;99427.02;211971;1329;140032;-57
2021/11/12 23:04:22;;;;;;;113.90;47.80;;;;;;;7.41;67.72;99416.67;212018;1325;139529;-60
2021/11/12 23:09:25;;;;;;;118.80;48.70;;;;;;;7.38;67.89;99411.52;212086;1325;138801;-59
2021/11/12 23:14:28;;;;;;;112.40;47.30;;;;;;;7.41;68.04;99410.13;212146;1325;140202;-58
2021/11/12 23:19:31;;;;;;;113.10;47.80;;;;;;;7.46;67.97;99407.44;211918;1327;139501;-58
2021/11/12 23:24:34;;;;;;;119.70;50.10;;;;;;;7.49;67.93;99398.51;211928;1323;138956;-58
2021/11/12 23:29:38;;;;;;;122.90;51.70;;;;;;;7.50;68.08;99388.59;212603;1322;139252;-61
2021/11/12 23:34:41;;;;;;;106.60;47.90;;;;;;;7.56;68.26;99381.07;212141;1327;139635;-57
2021/11/12 23:39:45;;;;;;;94.00;45.80;;;;;;;7.59;68.17;99374.40;211655;1327;139213;-59
2021/11/12 23:44:50;;;;;;;102.30;47.40;;;;;;;7.55;68.12;99372.10;211868;1325;138821;-58
2021/11/12 23:49:53;;;;;;;93.20;43.10;;;;;;;7.60;68.00;99370.30;212127;1331;139159;-59
2021/11/12 23:54:56;;;;;;;102.50;48.20;;;;;;;7.66;68.03;99367.02;212821;1326;140037;-57
2021/11/12 23:59:59;;;;;;;97.60;48.70;;;;;;;7.72;68.27;99367.63;212310;1325;140152;-59
